Cleora, Colorado
Current Conditions -  °F | °C
As of 4:15 PM on Wednesday 17 Dec 2014 (Local Time) from KANK Reporting Station
Broken Clouds Broken Clouds  
Wind Chill: 33°   Ceiling: 11000
Heat Index: 37°   Visibility: 10mi
Dew Point: 24°   Wind: 5mph
Humidity: 59%   Direction: 210°SSW
Pressure: 29.98"   Gusts: NA
Location:  38.5561°N, 106.066°W
Report Text: KANK 172315Z AUTO 21004KT 10SM SCT055 BKN110 03/M05 A2998 RMK AO1 T00261047
Loading
Personal Weather Stations






























Interactive Weather Map New forecast layout! Learn more

10-Day Weather Forecast

Advertisements
Track Severe Weather on mobile